createdAt,value
2023-05-14T00:02:04.130Z,2.03
2023-05-14T00:05:10.074Z,2.72
2023-05-14T00:08:14.458Z,2.03
2023-05-14T00:11:18.719Z,2.90
2023-05-14T00:14:23.004Z,2.47
2023-05-14T00:17:27.476Z,2.50
2023-05-14T00:20:31.887Z,2.58
2023-05-14T00:26:41.410Z,2.73
2023-05-14T00:29:46.008Z,2.60
2023-05-14T00:32:50.249Z,2.28
2023-05-14T00:35:54.663Z,2.30
2023-05-14T00:38:59.278Z,2.38
2023-05-14T00:42:04.035Z,2.08
2023-05-14T00:45:09.182Z,3.03
2023-05-14T00:48:14.011Z,2.70
2023-05-14T00:51:19.111Z,2.72
2023-05-14T00:54:23.561Z,2.10
2023-05-14T00:57:28.030Z,2.78
2023-05-14T01:00:32.324Z,2.65
2023-05-14T01:03:36.615Z,2.28
2023-05-14T01:07:02.916Z,2.35
2023-05-14T01:10:49.244Z,2.58
2023-05-14T01:14:21.599Z,2.78
2023-05-14T01:17:29.375Z,2.60
2023-05-14T01:20:33.879Z,2.35
2023-05-14T01:23:38.144Z,3.13
2023-05-14T01:26:42.694Z,2.20
2023-05-14T01:29:58.426Z,2.20
2023-05-14T01:33:07.998Z,2.60
2023-05-14T01:36:13.004Z,2.55
2023-05-14T01:39:18.957Z,2.03
2023-05-14T01:42:23.739Z,2.40
2023-05-14T01:48:32.680Z,1.83
2023-05-14T01:51:37.803Z,2.40
2023-05-14T01:54:42.296Z,2.15
2023-05-14T01:57:46.661Z,2.40
2023-05-14T02:00:50.958Z,2.10
2023-05-14T02:03:55.656Z,2.08
2023-05-14T02:07:00.451Z,2.60
2023-05-14T02:10:05.766Z,2.65
2023-05-14T02:13:10.312Z,2.40
2023-05-14T02:16:14.708Z,2.65
2023-05-14T02:19:19.069Z,1.67
2023-05-14T02:22:24.061Z,2.30
2023-05-14T02:25:28.672Z,3.35
2023-05-14T02:28:33.121Z,2.58
2023-05-14T02:31:37.295Z,2.13
2023-05-14T02:34:41.842Z,3.30
2023-05-14T02:37:46.273Z,2.47
2023-05-14T02:40:50.824Z,2.47
2023-05-14T02:43:55.130Z,2.50
2023-05-14T02:46:59.279Z,4.43
2023-05-14T02:50:06.078Z,2.33
2023-05-14T02:53:10.900Z,2.95
2023-05-14T02:56:15.207Z,1.85
2023-05-14T02:59:19.553Z,2.10
2023-05-14T03:02:24.435Z,2.30
2023-05-14T03:08:33.529Z,2.25
2023-05-14T03:11:37.751Z,2.50
2023-05-14T03:14:42.174Z,1.70
2023-05-14T03:17:46.589Z,2.20
2023-05-14T03:20:50.977Z,3.10
2023-05-14T03:23:55.471Z,2.95
2023-05-14T03:26:59.785Z,2.45
2023-05-14T03:30:04.911Z,1.63
2023-05-14T03:33:09.340Z,2.35
2023-05-14T03:36:13.712Z,2.53
2023-05-14T03:39:21.108Z,2.00
2023-05-14T03:42:25.337Z,2.70
2023-05-14T03:45:30.437Z,2.72
2023-05-14T03:48:36.477Z,2.30
2023-05-14T03:51:42.620Z,2.42
2023-05-14T03:54:46.961Z,2.17
2023-05-14T03:57:52.953Z,2.40
2023-05-14T04:00:57.333Z,2.60
2023-05-14T04:04:01.777Z,2.13
2023-05-14T04:10:11.388Z,2.33
2023-05-14T04:13:16.348Z,2.63
2023-05-14T04:19:25.520Z,2.45
2023-05-14T04:22:29.841Z,3.88
2023-05-14T04:25:34.346Z,2.88
2023-05-14T04:28:38.776Z,2.35
2023-05-14T04:31:43.287Z,2.60
2023-05-14T04:34:47.498Z,1.90
2023-05-14T04:37:51.853Z,2.35
2023-05-14T04:40:56.936Z,2.55
2023-05-14T04:44:03.399Z,2.25
2023-05-14T04:47:08.013Z,2.58
2023-05-14T04:50:12.715Z,1.92
2023-05-14T04:53:17.203Z,2.03
2023-05-14T04:56:21.659Z,2.78
2023-05-14T04:59:26.051Z,2.72
2023-05-14T05:02:31.010Z,3.08
2023-05-14T05:05:35.450Z,2.53
2023-05-14T05:08:39.825Z,2.10
2023-05-14T05:11:43.989Z,2.42
2023-05-14T05:14:48.184Z,2.80
2023-05-14T05:17:52.815Z,2.15
2023-05-14T05:20:56.995Z,2.28
2023-05-14T05:24:01.282Z,2.50
2023-05-14T05:27:06.105Z,2.72
2023-05-14T05:30:11.112Z,2.30
2023-05-14T05:33:15.874Z,2.38
2023-05-14T05:36:20.668Z,2.75
2023-05-14T05:39:25.177Z,2.80
2023-05-14T05:42:29.420Z,3.03
2023-05-14T05:48:38.350Z,2.17
2023-05-14T05:54:46.954Z,2.78
2023-05-14T05:57:51.192Z,2.00
2023-05-14T06:04:01.996Z,2.95
2023-05-14T06:10:10.777Z,2.42
2023-05-14T06:13:14.823Z,2.60
2023-05-14T06:16:19.124Z,1.88
2023-05-14T06:19:23.326Z,2.38
2023-05-14T06:22:27.954Z,2.15
2023-05-14T06:25:32.388Z,1.90
2023-05-14T06:28:36.764Z,2.22
2023-05-14T06:34:24.414Z,2.17
2023-05-14T06:40:33.405Z,2.20
2023-05-14T06:43:37.905Z,1.98
2023-05-14T06:46:42.704Z,2.92
2023-05-14T06:49:47.023Z,2.35
2023-05-14T06:52:51.345Z,2.22
2023-05-14T06:55:56.304Z,2.85
2023-05-14T06:59:00.836Z,1.98
2023-05-14T07:02:05.308Z,1.80
2023-05-14T07:05:10.947Z,2.40
2023-05-14T07:08:15.635Z,2.58
2023-05-14T07:11:19.964Z,1.90
2023-05-14T07:14:24.469Z,2.35
2023-05-14T07:17:29.134Z,2.28
2023-05-14T07:20:33.766Z,2.17
2023-05-14T07:23:40.852Z,2.50
2023-05-14T07:26:44.848Z,2.20
2023-05-14T07:29:50.724Z,2.03
2023-05-14T07:32:55.326Z,1.92
2023-05-14T07:35:59.652Z,2.40
2023-05-14T07:39:04.149Z,2.20
2023-05-14T07:42:09.080Z,2.50
2023-05-14T07:45:13.445Z,2.28
2023-05-14T07:48:17.882Z,1.90
2023-05-14T07:51:22.969Z,1.58
2023-05-14T07:54:27.975Z,1.98
2023-05-14T07:57:32.362Z,2.47
2023-05-14T08:00:36.722Z,2.25
2023-05-14T08:03:41.206Z,2.10
2023-05-14T08:06:45.460Z,2.03
2023-05-14T08:09:49.942Z,1.67
2023-05-14T08:12:54.446Z,2.25
2023-05-14T08:15:59.041Z,1.70
2023-05-14T08:19:03.423Z,1.73
2023-05-14T08:22:08.049Z,2.42
2023-05-14T08:25:12.881Z,1.98
2023-05-14T08:28:17.427Z,2.20
2023-05-14T08:31:21.800Z,2.63
2023-05-14T08:34:26.181Z,1.83
2023-05-14T08:37:30.673Z,2.33
2023-05-14T08:40:35.351Z,1.83
2023-05-14T08:44:08.120Z,1.40
2023-05-14T08:47:15.414Z,2.00
2023-05-14T08:50:22.782Z,1.40
2023-05-14T08:53:27.797Z,1.65
2023-05-14T08:56:33.487Z,1.88
2023-05-14T08:59:38.380Z,1.13
2023-05-14T09:02:44.886Z,1.23
2023-05-14T09:05:51.505Z,1.75
2023-05-14T09:08:56.512Z,1.48
2023-05-14T09:12:01.260Z,1.98
2023-05-14T09:15:06.688Z,2.00
2023-05-14T09:18:11.522Z,1.25
2023-05-14T09:21:15.961Z,1.95
2023-05-14T09:24:26.462Z,1.10
2023-05-14T09:27:32.168Z,3.10
2023-05-14T09:30:37.711Z,2.20
2023-05-14T09:33:42.018Z,1.92
2023-05-14T09:36:46.663Z,2.13
2023-05-14T09:39:51.527Z,1.80
2023-05-14T09:42:56.206Z,2.03
2023-05-14T09:46:00.730Z,2.50
2023-05-14T09:49:05.089Z,1.73
2023-05-14T09:52:09.617Z,2.42
2023-05-14T09:55:14.970Z,1.90
2023-05-14T09:58:19.762Z,3.00
2023-05-14T10:01:25.430Z,2.75
2023-05-14T10:04:30.090Z,2.80
2023-05-14T10:07:42.735Z,2.42
2023-05-14T10:10:47.376Z,1.73
2023-05-14T10:14:09.252Z,2.20
2023-05-14T10:17:18.392Z,2.08
2023-05-14T10:20:25.127Z,2.20
2023-05-14T10:23:30.619Z,2.53
2023-05-14T10:26:40.757Z,2.08
2023-05-14T10:29:54.698Z,2.63
2023-05-14T10:36:10.847Z,2.50
2023-05-14T10:39:15.557Z,2.95
2023-05-14T10:42:24.080Z,2.25
2023-05-14T10:45:30.222Z,3.17
2023-05-14T10:48:36.612Z,3.40
2023-05-14T10:51:41.624Z,3.60
2023-05-14T10:54:53.347Z,3.35
2023-05-14T10:57:59.120Z,3.78
2023-05-14T11:01:03.727Z,3.60
2023-05-14T11:04:07.798Z,4.20
2023-05-14T11:07:13.206Z,3.88
2023-05-14T11:10:19.617Z,3.22
2023-05-14T11:13:25.746Z,4.13
2023-05-14T11:16:31.265Z,4.40
2023-05-14T11:19:36.039Z,4.47
2023-05-14T11:22:41.987Z,2.88
2023-05-14T11:25:46.317Z,3.17
2023-05-14T11:28:50.853Z,2.90
2023-05-14T11:31:55.258Z,3.00
2023-05-14T11:34:59.930Z,3.25
2023-05-14T11:38:04.184Z,3.90
2023-05-14T11:41:08.582Z,3.80
2023-05-14T11:44:13.076Z,3.80
2023-05-14T11:47:19.393Z,3.78
2023-05-14T11:50:24.319Z,4.25
2023-05-14T11:53:30.877Z,4.20
2023-05-14T11:56:35.347Z,4.22
2023-05-14T11:59:40.954Z,4.50
2023-05-14T12:02:45.659Z,4.38
2023-05-14T12:05:57.293Z,4.15
2023-05-14T12:09:01.702Z,3.35
2023-05-14T12:12:11.503Z,3.45
2023-05-14T12:15:19.114Z,3.58
2023-05-14T12:18:30.053Z,2.95
2023-05-14T12:21:34.937Z,3.63
2023-05-14T12:24:40.217Z,3.13
2023-05-14T12:27:45.396Z,2.42
2023-05-14T12:30:57.108Z,3.78
2023-05-14T12:34:02.249Z,1.10
2023-05-14T12:37:07.097Z,1.00
2023-05-14T12:40:11.997Z,1.05
2023-05-14T12:43:16.587Z,1.70
2023-05-14T12:46:21.370Z,1.50
2023-05-14T12:49:25.837Z,0.90
2023-05-14T12:52:37.548Z,1.00
2023-05-14T12:55:43.514Z,1.00
2023-05-14T12:58:47.800Z,1.20
2023-05-14T13:01:52.059Z,1.05
2023-05-14T13:04:56.477Z,1.20
2023-05-14T13:08:03.659Z,1.48
2023-05-14T13:11:08.471Z,1.08
2023-05-14T13:14:13.190Z,1.33
2023-05-14T13:17:17.666Z,1.35
2023-05-14T13:20:23.543Z,1.10
2023-05-14T13:23:27.913Z,1.02
2023-05-14T13:26:32.275Z,1.38
2023-05-14T13:29:37.171Z,1.27
2023-05-14T13:32:42.327Z,1.60
2023-05-14T13:35:46.921Z,1.27
2023-05-14T13:38:51.322Z,1.30
2023-05-14T13:41:56.855Z,2.05
2023-05-14T13:45:01.601Z,1.63
2023-05-14T13:48:06.836Z,1.48
2023-05-14T13:51:11.272Z,1.20
2023-05-14T13:54:15.772Z,1.23
2023-05-14T13:57:21.394Z,1.60
2023-05-14T14:00:27.100Z,1.40
2023-05-14T14:03:31.391Z,0.95
2023-05-14T14:06:35.460Z,1.83
2023-05-14T14:09:40.665Z,1.17
2023-05-14T14:12:45.051Z,1.67
2023-05-14T14:15:49.958Z,2.20
2023-05-14T14:18:54.350Z,1.80
2023-05-14T14:21:58.789Z,3.60
2023-05-14T14:25:04.165Z,2.50
2023-05-14T14:28:08.370Z,2.70
2023-05-14T14:31:13.654Z,2.50
2023-05-14T14:34:18.093Z,2.78
2023-05-14T14:37:23.176Z,2.75
2023-05-14T14:40:27.851Z,2.13
2023-05-14T14:43:32.542Z,2.83
2023-05-14T14:46:37.209Z,2.10
2023-05-14T14:49:41.486Z,2.53
2023-05-14T14:52:47.937Z,2.22
2023-05-14T14:55:52.639Z,2.88
2023-05-14T14:58:57.307Z,2.63
2023-05-14T15:02:02.142Z,2.75
2023-05-14T15:05:07.137Z,2.17
2023-05-14T15:08:11.748Z,2.20
2023-05-14T15:11:16.248Z,2.30
2023-05-14T15:14:20.668Z,2.70
2023-05-14T15:17:26.475Z,2.25
2023-05-14T15:20:31.487Z,2.95
2023-05-14T15:23:35.807Z,3.08
2023-05-14T15:26:40.951Z,2.30
2023-05-14T15:29:45.472Z,2.28
2023-05-14T15:32:50.052Z,3.38
2023-05-14T15:35:54.487Z,2.33
2023-05-14T15:38:59.926Z,3.05
2023-05-14T15:42:05.169Z,2.05
2023-05-14T15:45:11.772Z,2.15
2023-05-14T15:48:15.820Z,2.42
2023-05-14T15:51:20.487Z,2.60
2023-05-14T15:54:26.219Z,2.92
2023-05-14T15:57:30.369Z,2.22
2023-05-14T16:00:34.428Z,2.10
2023-05-14T16:03:38.741Z,3.00
2023-05-14T16:06:44.906Z,2.28
2023-05-14T16:09:49.313Z,2.97
2023-05-14T16:12:53.696Z,2.72
2023-05-14T16:15:59.439Z,2.25
2023-05-14T16:19:04.269Z,2.85
2023-05-14T16:22:09.020Z,2.58
2023-05-14T16:25:13.344Z,1.95
2023-05-14T16:28:17.680Z,2.22
2023-05-14T16:31:22.297Z,3.05
2023-05-14T16:34:27.163Z,2.45
2023-05-14T16:37:31.716Z,2.35
2023-05-14T16:40:36.076Z,1.58
2023-05-14T16:43:40.444Z,2.03
2023-05-14T16:46:44.965Z,1.85
2023-05-14T16:49:49.460Z,2.40
2023-05-14T16:52:53.974Z,1.75
2023-05-14T16:55:58.282Z,1.98
2023-05-14T16:59:02.678Z,2.00
2023-05-14T17:02:07.423Z,1.60
2023-05-14T17:05:12.055Z,1.52
2023-05-14T17:08:16.462Z,1.20
2023-05-14T17:11:21.286Z,1.80
2023-05-14T17:14:25.952Z,2.67
2023-05-14T17:17:32.166Z,1.52
2023-05-14T17:20:36.679Z,1.50
2023-05-14T17:23:42.431Z,2.60
2023-05-14T17:26:47.480Z,1.83
2023-05-14T17:29:51.932Z,1.80
2023-05-14T17:32:56.331Z,2.33
2023-05-14T17:36:00.686Z,1.60
2023-05-14T17:39:05.251Z,1.88
2023-05-14T17:42:10.009Z,2.10
2023-05-14T17:45:15.428Z,2.33
2023-05-14T17:48:19.904Z,2.33
2023-05-14T17:51:24.057Z,2.03
2023-05-14T17:54:28.421Z,1.83
2023-05-14T17:57:32.736Z,2.65
2023-05-14T18:00:37.320Z,2.28
2023-05-14T18:03:42.302Z,2.35
2023-05-14T18:06:46.989Z,2.72
2023-05-14T18:09:51.425Z,2.20
2023-05-14T18:12:56.389Z,1.48
2023-05-14T18:16:01.169Z,1.90
2023-05-14T18:19:05.783Z,1.95
2023-05-14T18:22:10.017Z,2.17
2023-05-14T18:28:18.981Z,2.05
2023-05-14T18:31:23.744Z,1.90
2023-05-14T18:34:27.992Z,1.95
2023-05-14T18:37:33.280Z,2.20
2023-05-14T18:40:37.564Z,2.42
2023-05-14T18:43:41.943Z,2.45
2023-05-14T18:46:46.643Z,2.10
2023-05-14T18:49:55.077Z,1.90
2023-05-14T18:52:59.647Z,2.53
2023-05-14T18:56:04.600Z,2.00
2023-05-14T18:59:09.221Z,2.53
2023-05-14T19:02:13.549Z,2.38
2023-05-14T19:05:18.122Z,2.80
2023-05-14T19:08:22.948Z,2.40
2023-05-14T19:11:27.703Z,2.40
2023-05-14T19:17:37.354Z,2.85
2023-05-14T19:20:42.500Z,2.75
2023-05-14T19:23:46.870Z,2.78
2023-05-14T19:26:51.532Z,2.88
2023-05-14T19:29:56.137Z,2.20
2023-05-14T19:33:00.577Z,2.50
2023-05-14T19:36:05.509Z,2.83
2023-05-14T19:39:10.869Z,2.53
2023-05-14T19:42:15.604Z,2.35
2023-05-14T19:45:20.301Z,4.05
2023-05-14T19:48:24.950Z,3.08
2023-05-14T19:54:34.065Z,2.83
2023-05-14T19:57:39.133Z,3.35
2023-05-14T20:00:43.572Z,2.88
2023-05-14T20:03:48.200Z,2.92
2023-05-14T20:06:52.684Z,2.08
2023-05-14T20:09:56.709Z,3.03
2023-05-14T20:13:01.033Z,2.88
2023-05-14T20:16:05.951Z,2.40
2023-05-14T20:19:11.004Z,3.28
2023-05-14T20:22:16.054Z,2.83
2023-05-14T20:25:20.889Z,3.30
2023-05-14T20:28:25.874Z,3.00
2023-05-14T20:31:30.286Z,3.25
2023-05-14T20:34:34.814Z,2.50
2023-05-14T20:37:39.455Z,3.97
2023-05-14T20:43:48.751Z,4.03
2023-05-14T20:46:53.179Z,2.85
2023-05-14T20:49:57.610Z,3.33
2023-05-14T20:56:06.762Z,2.70
2023-05-14T20:59:03.123Z,3.35
2023-05-14T21:05:13.926Z,3.63
2023-05-14T21:08:18.575Z,2.67
2023-05-14T21:11:23.115Z,3.30
2023-05-14T21:14:27.502Z,4.28
2023-05-14T21:20:36.828Z,4.20
2023-05-14T21:23:41.273Z,4.07
2023-05-14T21:26:46.292Z,3.28
2023-05-14T21:29:50.604Z,3.78
2023-05-14T21:32:55.116Z,4.20
2023-05-14T21:35:59.593Z,3.47
2023-05-14T21:39:04.056Z,3.65
2023-05-14T21:42:09.056Z,3.42
2023-05-14T21:45:13.382Z,3.35
2023-05-14T21:48:18.138Z,3.75
2023-05-14T21:54:27.343Z,3.63
2023-05-14T21:57:34.314Z,3.72
2023-05-14T22:00:39.343Z,3.30
2023-05-14T22:03:43.569Z,3.42
2023-05-14T22:06:47.903Z,3.70
2023-05-14T22:09:52.866Z,3.63
2023-05-14T22:12:57.531Z,3.53
2023-05-14T22:16:12.160Z,3.60
2023-05-14T22:19:18.187Z,3.55
2023-05-14T22:22:22.537Z,5.18
2023-05-14T22:25:27.363Z,4.25
2023-05-14T22:28:31.900Z,4.32
2023-05-14T22:31:36.256Z,4.32
2023-05-14T22:34:41.425Z,3.42
2023-05-14T22:37:46.003Z,4.18
2023-05-14T22:40:50.712Z,3.50
2023-05-14T22:43:55.358Z,3.33
2023-05-14T22:46:59.831Z,3.95
2023-05-14T22:50:07.320Z,3.97
2023-05-14T22:53:11.651Z,3.17
2023-05-14T22:56:15.994Z,3.85
2023-05-14T22:59:22.070Z,4.20
2023-05-14T23:02:28.387Z,3.88
2023-05-14T23:05:32.898Z,3.78
2023-05-14T23:08:37.672Z,4.28
2023-05-14T23:11:41.998Z,3.30
2023-05-14T23:14:46.308Z,3.60
2023-05-14T23:17:50.957Z,3.90
2023-05-14T23:20:55.527Z,3.72
2023-05-14T23:23:59.778Z,4.85
2023-05-14T23:27:04.258Z,4.25
2023-05-14T23:30:09.199Z,4.22
2023-05-14T23:33:13.611Z,4.30
2023-05-14T23:36:18.282Z,3.80
2023-05-14T23:39:22.831Z,3.60
2023-05-14T23:42:26.899Z,5.30
2023-05-14T23:45:31.396Z,3.88
2023-05-14T23:51:40.988Z,3.78
2023-05-14T23:54:45.025Z,3.78
2023-05-14T23:57:49.956Z,3.33
